Time;durP1;ratioP1;P1;durP2;ratioP2;P2;SDS_P1;SDS_P2;PMS_P1;PMS_P2;Temp;Humidity;BMP_temperature;BMP_pressure;BME280_temperature;BME280_humidity;BME280_pressure;Samples;Min_cycle;Max_cycle;Signal;HPM_P1;HPM_P2
2021/07/14 00:00:28;;;;;;;28.58;9.93;;;16.40;99.90;;;;;;2093367;28;20424;-62
2021/07/14 00:01:29;;;;;;;36.83;9.65;;;16.40;99.90;;;;;;2086187;28;20497;-62
2021/07/14 00:02:30;;;;;;;29.05;10.30;;;16.40;99.90;;;;;;2078521;28;20071;-62
2021/07/14 00:03:30;;;;;;;26.88;9.23;;;16.30;99.90;;;;;;2086548;28;20030;-62
2021/07/14 00:04:33;;;;;;;31.25;9.30;;;16.30;99.90;;;;;;2094652;28;20025;-62
2021/07/14 00:05:34;;;;;;;29.05;10.20;;;16.30;99.90;;;;;;2094753;28;20017;-62
2021/07/14 00:06:35;;;;;;;29.63;9.43;;;16.30;99.90;;;;;;2087175;28;20400;-62
2021/07/14 00:07:36;;;;;;;21.85;9.18;;;16.30;99.90;;;;;;2087247;28;20100;-62
2021/07/14 00:08:37;;;;;;;37.63;9.80;;;16.30;99.90;;;;;;2087006;28;20033;-62
2021/07/14 00:09:38;;;;;;;32.30;9.32;;;16.30;99.90;;;;;;2085645;28;20497;-62
2021/07/14 00:10:39;;;;;;;28.13;9.52;;;16.30;99.90;;;;;;2092330;28;20017;-62
2021/07/14 00:11:43;;;;;;;33.53;10.48;;;16.30;99.90;;;;;;2086586;28;20108;-62
2021/07/14 00:14:26;;;;;;;26.73;9.18;;;16.40;99.90;;;;;;2081302;28;20116;-62
2021/07/14 00:23:02;;;;;;;19.40;8.40;;;16.50;99.90;;;;;;2086651;28;20496;-69
2021/07/14 00:24:05;;;;;;;29.85;9.00;;;16.50;99.90;;;;;;2088023;28;20037;-70
2021/07/14 00:25:11;;;;;;;25.90;8.85;;;16.50;99.90;;;;;;2090593;28;20020;-69
2021/07/14 00:26:11;;;;;;;32.22;8.75;;;16.50;99.90;;;;;;2094311;28;20111;-68
2021/07/14 00:27:12;;;;;;;38.60;9.07;;;16.50;99.90;;;;;;2089818;28;20021;-69
2021/07/14 00:28:15;;;;;;;30.42;10.23;;;16.40;99.90;;;;;;2093059;28;20021;-68
2021/07/14 00:29:15;;;;;;;27.38;8.95;;;16.40;99.90;;;;;;2088096;28;20087;-69
2021/07/14 00:30:23;;;;;;;26.13;9.68;;;16.50;99.90;;;;;;2097220;28;20076;-69
2021/07/14 00:31:24;;;;;;;28.95;8.23;;;16.50;99.90;;;;;;2098767;28;20018;-69
2021/07/14 00:32:26;;;;;;;33.00;9.27;;;16.50;99.90;;;;;;2098951;28;20032;-71
2021/07/14 00:33:31;;;;;;;33.28;9.13;;;16.50;99.90;;;;;;2099434;28;20013;-69
2021/07/14 00:34:33;;;;;;;26.83;8.40;;;16.50;99.90;;;;;;2099668;28;20025;-70
2021/07/14 00:35:33;;;;;;;27.42;8.70;;;16.50;99.90;;;;;;2097445;28;20009;-69
2021/07/14 00:36:34;;;;;;;30.25;8.30;;;16.50;99.90;;;;;;2098836;28;20037;-69
2021/07/14 00:37:35;;;;;;;23.83;7.80;;;16.50;99.90;;;;;;2099350;28;20036;-69
2021/07/14 00:38:36;;;;;;;23.52;8.68;;;16.50;99.90;;;;;;2090756;28;20025;-69
2021/07/14 00:39:37;;;;;;;21.17;8.18;;;16.50;99.90;;;;;;2083291;28;20025;-69
2021/07/14 00:40:38;;;;;;;25.95;8.48;;;16.50;99.90;;;;;;2081402;28;20465;-69
2021/07/14 00:41:39;;;;;;;22.65;9.40;;;16.50;99.90;;;;;;2081223;28;20037;-68
2021/07/14 00:42:40;;;;;;;21.63;8.30;;;16.50;99.90;;;;;;2081386;28;20090;-68
2021/07/14 00:43:41;;;;;;;23.02;8.40;;;16.40;99.90;;;;;;2086395;28;20060;-72
2021/07/14 00:44:42;;;;;;;26.50;8.40;;;16.40;99.90;;;;;;2084138;28;20456;-68
2021/07/14 00:45:42;;;;;;;23.83;8.27;;;16.40;99.90;;;;;;2081256;28;20022;-69
2021/07/14 00:46:47;;;;;;;27.50;8.35;;;16.30;99.90;;;;;;2082125;28;20025;-68
2021/07/14 00:47:52;;;;;;;28.70;8.65;;;16.30;99.90;;;;;;2083320;28;20119;-68
2021/07/14 00:48:58;;;;;;;31.08;8.23;;;16.30;99.90;;;;;;2085985;28;20013;-68
2021/07/14 00:50:00;;;;;;;25.00;8.90;;;16.20;99.90;;;;;;2089704;28;20079;-68
2021/07/14 00:51:00;;;;;;;27.27;7.78;;;16.20;99.90;;;;;;2089024;28;20017;-68
2021/07/14 00:52:01;;;;;;;22.15;7.97;;;16.20;99.90;;;;;;2089089;28;20087;-68
2021/07/14 00:53:05;;;;;;;24.33;8.02;;;16.10;99.90;;;;;;2089089;28;20025;-68
2021/07/14 00:54:06;;;;;;;23.52;8.80;;;16.10;99.90;;;;;;2089447;28;20029;-68
2021/07/14 00:55:07;;;;;;;21.50;7.68;;;16.10;99.90;;;;;;2089479;28;20099;-68
2021/07/14 00:56:09;;;;;;;22.08;7.47;;;16.00;99.90;;;;;;2086266;28;20047;-68
2021/07/14 00:57:10;;;;;;;22.13;8.18;;;16.00;99.90;;;;;;2081868;28;20108;-68
2021/07/14 00:58:11;;;;;;;17.27;7.55;;;16.00;99.90;;;;;;2089252;28;20025;-68
2021/07/14 00:59:11;;;;;;;27.70;8.07;;;16.00;99.90;;;;;;2088680;28;20117;-69
2021/07/14 01:00:13;;;;;;;30.60;9.13;;;16.00;99.90;;;;;;2089030;28;20631;-68
2021/07/14 01:01:13;;;;;;;23.88;7.75;;;16.00;99.90;;;;;;2089269;28;20051;-66
2021/07/14 01:02:15;;;;;;;25.65;7.80;;;16.00;99.90;;;;;;2089339;28;20029;-68
2021/07/14 01:03:19;;;;;;;22.20;8.30;;;15.90;99.90;;;;;;2088651;28;20056;-69
2021/07/14 01:04:31;;;;;;;23.42;8.40;;;15.80;99.90;;;;;;2085944;28;20037;-68
2021/07/14 01:05:40;;;;;;;19.45;7.78;;;15.80;99.90;;;;;;2084779;28;20052;-68
2021/07/14 01:06:54;;;;;;;25.27;9.10;;;15.70;99.90;;;;;;2082661;28;20025;-68
2021/07/14 01:08:04;;;;;;;27.52;9.63;;;15.70;99.90;;;;;;2081165;28;20022;-68
2021/07/14 01:09:09;;;;;;;24.50;8.02;;;15.70;99.90;;;;;;2080822;28;20021;-68
2021/07/14 01:10:14;;;;;;;29.13;9.50;;;15.80;99.90;;;;;;2081124;28;20025;-68
2021/07/14 01:11:19;;;;;;;23.25;8.13;;;15.90;99.90;;;;;;2096861;28;20016;-69
2021/07/14 01:12:37;;;;;;;22.80;9.10;;;15.90;99.90;;;;;;2093572;28;20025;-68
2021/07/14 01:13:43;;;;;;;29.85;9.32;;;15.90;99.90;;;;;;2081377;28;20022;-68
2021/07/14 01:15:00;;;;;;;30.27;9.52;;;16.00;99.90;;;;;;2081142;28;20159;-68
2021/07/14 01:16:04;;;;;;;23.15;8.48;;;16.00;99.90;;;;;;2080826;28;20026;-68
2021/07/14 01:17:13;;;;;;;22.75;9.20;;;16.00;99.90;;;;;;2081005;28;20076;-68
2021/07/14 01:18:39;;;;;;;26.50;9.40;;;16.10;99.90;;;;;;2081209;28;20017;-69
2021/07/14 01:19:58;;;;;;;27.48;10.38;;;16.10;99.90;;;;;;2077328;28;20132;-68
2021/07/14 01:21:14;;;;;;;35.03;10.30;;;16.20;99.90;;;;;;2080299;28;20084;-68
2021/07/14 01:22:25;;;;;;;31.15;9.20;;;16.20;99.90;;;;;;2080200;28;20096;-67
2021/07/14 01:23:29;;;;;;;23.92;9.65;;;16.30;99.90;;;;;;2080661;28;20056;-68
2021/07/14 01:24:54;;;;;;;25.80;9.30;;;16.30;99.90;;;;;;2088687;28;20043;-68
2021/07/14 01:26:16;;;;;;;26.95;9.10;;;16.30;99.90;;;;;;2091402;28;20524;-68
2021/07/14 01:27:20;;;;;;;26.63;9.57;;;16.30;99.90;;;;;;2097286;28;20051;-68
2021/07/14 01:28:25;;;;;;;21.77;9.27;;;16.30;99.90;;;;;;2097406;28;20361;-68
2021/07/14 01:29:28;;;;;;;28.23;9.52;;;16.30;99.90;;;;;;2092563;28;20078;-68
2021/07/14 01:30:29;;;;;;;31.08;9.50;;;16.30;99.90;;;;;;2086477;28;20017;-68
2021/07/14 01:31:31;;;;;;;21.07;9.17;;;16.30;99.90;;;;;;2080849;28;20086;-69
2021/07/14 01:32:34;;;;;;;21.70;8.60;;;16.30;99.90;;;;;;2086247;28;20850;-69
2021/07/14 01:33:41;;;;;;;23.45;9.13;;;16.30;99.90;;;;;;2080322;28;20017;-68
2021/07/14 01:34:46;;;;;;;21.90;9.18;;;16.30;99.90;;;;;;2080799;28;20031;-69
2021/07/14 01:35:50;;;;;;;26.08;9.57;;;16.30;99.90;;;;;;2080651;28;20669;-68
2021/07/14 01:36:53;;;;;;;21.35;9.10;;;16.20;99.90;;;;;;2080796;28;20085;-68
2021/07/14 01:37:55;;;;;;;25.10;9.85;;;16.20;99.90;;;;;;2085151;28;20063;-69
2021/07/14 01:38:57;;;;;;;23.15;9.35;;;16.20;99.90;;;;;;2087932;28;20613;-68
2021/07/14 01:40:01;;;;;;;21.65;8.88;;;16.10;99.90;;;;;;2088272;28;20021;-68
2021/07/14 01:41:04;;;;;;;21.70;8.27;;;16.10;99.90;;;;;;2087988;28;20029;-68
2021/07/14 01:42:07;;;;;;;25.20;8.65;;;16.00;99.90;;;;;;2081200;28;20622;-70
2021/07/14 01:43:09;;;;;;;21.02;8.93;;;16.00;99.90;;;;;;2087019;28;20036;-69
2021/07/14 01:44:12;;;;;;;25.17;9.65;;;16.00;99.90;;;;;;2088277;28;20078;-68
2021/07/14 01:45:13;;;;;;;27.95;10.18;;;16.00;99.90;;;;;;2088463;28;20071;-68
2021/07/14 01:46:15;;;;;;;21.63;8.98;;;16.10;99.90;;;;;;2089177;28;20153;-68
2021/07/14 01:47:17;;;;;;;21.95;8.95;;;16.10;99.90;;;;;;2088153;28;20512;-68
2021/07/14 01:48:18;;;;;;;28.23;8.88;;;16.10;99.90;;;;;;2088616;28;20028;-68
2021/07/14 01:49:20;;;;;;;19.27;9.40;;;16.10;99.90;;;;;;2089121;28;20493;-68
2021/07/14 01:50:23;;;;;;;19.50;9.48;;;16.20;99.90;;;;;;2083778;28;20075;-68
2021/07/14 01:51:25;;;;;;;23.25;9.70;;;16.20;99.90;;;;;;2096427;28;20028;-68
2021/07/14 01:52:28;;;;;;;16.17;9.05;;;16.30;99.90;;;;;;2096212;28;20542;-69
2021/07/14 01:53:30;;;;;;;22.45;9.30;;;16.30;99.90;;;;;;2080712;28;20097;-69
2021/07/14 01:54:31;;;;;;;22.88;9.25;;;16.30;99.90;;;;;;2078459;28;20656;-68
2021/07/14 01:55:37;;;;;;;20.83;9.93;;;16.40;99.90;;;;;;2088137;28;20400;-69
2021/07/14 01:56:39;;;;;;;16.48;8.93;;;16.40;99.90;;;;;;2088889;28;20021;-69
2021/07/14 01:57:40;;;;;;;;;;;16.40;99.90;;;;;;2088843;28;20025;-68
2021/07/14 01:58:44;;;;;;;14.15;8.90;;;16.40;99.90;;;;;;2088552;28;19905;-68
2021/07/14 01:59:46;;;;;;;26.80;9.20;;;16.40;99.90;;;;;;2089090;28;20384;-68
2021/07/14 02:00:51;;;;;;;25.02;9.57;;;16.50;99.90;;;;;;2089149;28;20423;-69
2021/07/14 02:01:53;;;;;;;18.38;8.85;;;16.50;99.90;;;;;;2089224;28;20080;-68
2021/07/14 02:03:06;;;;;;;24.27;9.23;;;16.50;99.90;;;;;;2086460;28;20025;-68
2021/07/14 02:04:33;;;;;;;20.83;9.05;;;16.50;99.90;;;;;;2084815;28;20028;-68
2021/07/14 02:05:37;;;;;;;23.52;8.45;;;16.60;99.90;;;;;;2081074;28;20370;-69
2021/07/14 02:06:39;;;;;;;16.63;8.75;;;16.60;99.90;;;;;;2080695;28;20022;-68
2021/07/14 02:07:40;;;;;;;;;;;16.70;99.90;;;;;;2076665;28;20029;-68
2021/07/14 02:08:41;;;;;;;18.95;8.75;;;16.70;99.90;;;;;;2081230;28;20323;-68
2021/07/14 02:09:45;;;;;;;13.00;7.75;;;16.70;99.90;;;;;;2080595;28;20061;-68
2021/07/14 02:10:46;;;;;;;15.57;8.10;;;16.80;99.90;;;;;;2080879;28;20047;-69
2021/07/14 02:11:51;;;;;;;18.40;8.40;;;16.70;99.90;;;;;;2079045;28;20554;-69
2021/07/14 02:12:52;;;;;;;15.98;7.20;;;16.80;99.90;;;;;;2080449;28;20033;-68
2021/07/14 02:13:55;;;;;;;20.90;7.97;;;16.80;99.90;;;;;;2080498;28;20512;-68
2021/07/14 02:14:59;;;;;;;17.83;7.90;;;16.90;99.90;;;;;;2080592;28;20053;-68
2021/07/14 02:16:01;;;;;;;24.17;8.38;;;16.80;99.90;;;;;;2080567;28;20455;-68
2021/07/14 02:17:15;;;;;;;23.63;9.48;;;16.90;99.90;;;;;;2079960;28;20470;-68
2021/07/14 02:18:17;;;;;;;19.27;8.57;;;17.00;99.90;;;;;;2073484;28;20026;-68
2021/07/14 02:19:21;;;;;;;15.98;7.60;;;17.00;99.90;;;;;;2078176;28;20061;-69
2021/07/14 02:20:22;;;;;;;17.33;7.75;;;17.00;99.90;;;;;;2082727;28;20568;-69
2021/07/14 02:21:24;;;;;;;18.93;7.87;;;17.00;99.90;;;;;;2085547;28;20029;-69
2021/07/14 02:22:27;;;;;;;18.02;8.57;;;17.00;99.90;;;;;;2080746;28;20752;-69
2021/07/14 02:23:28;;;;;;;16.48;8.07;;;17.00;99.90;;;;;;2081397;28;20029;-69
2021/07/14 02:24:30;;;;;;;23.00;8.13;;;17.00;99.90;;;;;;2084476;28;20025;-69
2021/07/14 02:25:32;;;;;;;21.08;8.10;;;17.10;99.90;;;;;;2084972;28;20024;-69
2021/07/14 02:26:34;;;;;;;18.08;8.30;;;17.00;99.90;;;;;;2096501;28;20032;-68
2021/07/14 02:27:35;;;;;;;18.00;8.55;;;17.00;99.90;;;;;;2097210;28;20027;-69
2021/07/14 02:28:36;;;;;;;22.33;8.00;;;17.10;99.90;;;;;;2096128;28;20021;-69
2021/07/14 02:29:39;;;;;;;22.30;8.48;;;17.00;99.90;;;;;;2086807;28;20789;-69
2021/07/14 02:30:39;;;;;;;23.80;8.55;;;17.00;99.90;;;;;;2086660;28;20467;-68
2021/07/14 02:31:40;;;;;;;22.02;7.85;;;17.00;99.90;;;;;;2083047;28;20068;-69
2021/07/14 02:32:41;;;;;;;21.60;7.72;;;17.00;99.90;;;;;;2088171;28;20025;-69
2021/07/14 02:33:42;;;;;;;21.35;7.97;;;17.00;99.90;;;;;;2088044;28;20025;-69
2021/07/14 02:34:45;;;;;;;27.40;8.45;;;17.00;99.90;;;;;;2078832;28;20097;-69
2021/07/14 02:35:49;;;;;;;22.10;8.82;;;17.00;99.90;;;;;;2080216;28;20040;-69
2021/07/14 02:36:50;;;;;;;25.90;8.32;;;17.00;99.90;;;;;;2080417;28;20025;-69
2021/07/14 02:38:01;;;;;;;18.85;7.70;;;17.00;99.90;;;;;;2080655;28;20033;-69
2021/07/14 02:39:05;;;;;;;21.17;7.57;;;17.00;99.90;;;;;;2078592;28;20030;-68
2021/07/14 02:40:08;;;;;;;25.98;8.85;;;17.00;99.90;;;;;;2080071;28;20104;-68
2021/07/14 02:41:22;;;;;;;18.23;7.50;;;17.00;99.90;;;;;;2079745;28;20025;-68
2021/07/14 02:42:29;;;;;;;24.02;8.05;;;17.00;99.90;;;;;;2087839;28;20029;-68
2021/07/14 02:43:34;;;;;;;30.20;8.95;;;17.00;99.90;;;;;;2088215;28;20029;-68
2021/07/14 02:44:39;;;;;;;26.27;8.25;;;17.00;99.90;;;;;;2088541;28;20021;-69
2021/07/14 02:45:46;;;;;;;30.38;8.18;;;16.90;99.90;;;;;;2083403;28;20032;-68
2021/07/14 02:46:53;;;;;;;28.42;8.50;;;16.90;99.90;;;;;;2087977;28;20025;-69
2021/07/14 02:47:55;;;;;;;30.25;8.88;;;16.90;99.90;;;;;;2088481;28;20304;-68
2021/07/14 02:49:05;;;;;;;22.52;8.00;;;16.90;99.90;;;;;;2088851;28;20024;-69
2021/07/14 02:50:16;;;;;;;28.30;8.18;;;16.90;99.90;;;;;;2088660;28;20024;-70
2021/07/14 02:51:18;;;;;;;29.17;8.50;;;17.00;99.90;;;;;;2088740;28;20013;-69
2021/07/14 02:52:23;;;;;;;21.90;8.10;;;16.90;99.90;;;;;;2084694;28;20048;-69
2021/07/14 02:53:35;;;;;;;18.70;7.13;;;16.90;99.90;;;;;;2079650;28;20029;-69
2021/07/14 02:54:40;;;;;;;26.58;8.07;;;16.90;99.90;;;;;;2080101;28;20053;-69
2021/07/14 02:55:46;;;;;;;22.73;8.48;;;16.90;99.90;;;;;;2080227;28;20041;-69
2021/07/14 02:56:57;;;;;;;27.15;8.23;;;16.90;99.90;;;;;;2079663;28;20445;-69
2021/07/14 02:58:02;;;;;;;23.85;8.25;;;17.00;99.90;;;;;;2079586;28;20122;-69
2021/07/14 02:59:08;;;;;;;27.33;8.18;;;17.00;99.90;;;;;;2079985;28;20029;-69
2021/07/14 03:00:10;;;;;;;25.63;8.25;;;17.00;99.90;;;;;;2080064;28;20037;-62
2021/07/14 03:01:15;;;;;;;20.35;6.63;;;16.90;99.90;;;;;;2081518;28;20575;-62
2021/07/14 03:02:19;;;;;;;23.50;8.20;;;17.00;99.90;;;;;;2083145;28;20049;-62
2021/07/14 03:03:22;;;;;;;23.08;7.60;;;16.90;99.90;;;;;;2084330;28;20036;-63
2021/07/14 03:04:30;;;;;;;21.02;7.38;;;16.90;99.90;;;;;;2089107;28;20013;-62
2021/07/14 03:05:31;;;;;;;23.63;7.68;;;16.90;99.90;;;;;;2082838;28;20590;-63
2021/07/14 03:06:34;;;;;;;23.45;7.18;;;16.90;99.90;;;;;;2086638;28;20027;-62
2021/07/14 03:07:36;;;;;;;30.50;8.10;;;16.90;99.90;;;;;;2087646;28;20035;-62
2021/07/14 03:08:39;;;;;;;18.75;7.32;;;16.90;99.90;;;;;;2088201;28;20021;-62
2021/07/14 03:09:41;;;;;;;26.45;7.82;;;16.90;99.90;;;;;;2091868;28;20104;-63
2021/07/14 03:10:43;;;;;;;26.40;7.63;;;16.90;99.90;;;;;;2088923;28;20050;-62
2021/07/14 03:11:44;;;;;;;21.13;7.43;;;17.00;99.90;;;;;;2088762;28;20040;-62
2021/07/14 03:12:48;;;;;;;26.08;6.75;;;16.90;99.90;;;;;;2088642;28;20031;-61
2021/07/14 03:13:49;;;;;;;23.42;6.93;;;17.00;99.90;;;;;;2084712;28;20053;-62
2021/07/14 03:15:00;;;;;;;22.10;7.25;;;16.90;99.90;;;;;;2082847;28;20441;-62
2021/07/14 03:16:02;;;;;;;27.65;7.07;;;17.00;99.90;;;;;;2085392;28;20475;-63
2021/07/14 03:17:05;;;;;;;20.98;7.05;;;16.90;99.90;;;;;;2088257;28;20067;-61
2021/07/14 03:18:09;;;;;;;24.00;7.07;;;16.90;99.90;;;;;;2086650;28;20492;-61
2021/07/14 03:19:11;;;;;;;23.90;6.45;;;17.00;99.90;;;;;;2083332;28;20044;-62
2021/07/14 03:20:13;;;;;;;;;;;17.00;99.90;;;;;;2088970;28;20025;-62
2021/07/14 03:21:15;;;;;;;25.02;6.82;;;17.00;99.90;;;;;;2080248;28;19911;-63
2021/07/14 03:22:17;;;;;;;23.55;6.97;;;17.00;99.90;;;;;;2079658;28;20088;-62
2021/07/14 03:23:19;;;;;;;21.52;7.43;;;16.90;99.90;;;;;;2079890;28;20021;-61
2021/07/14 03:24:20;;;;;;;;;;;16.90;99.90;;;;;;2080245;28;20068;-62
2021/07/14 03:25:21;;;;;;;21.70;6.80;;;17.00;99.90;;;;;;2077896;28;19912;-62
2021/07/14 03:26:22;;;;;;;21.98;6.68;;;17.00;99.90;;;;;;2082777;28;20116;-62
2021/07/14 03:27:24;;;;;;;27.17;7.03;;;16.90;99.90;;;;;;2087461;28;20029;-62
2021/07/14 03:28:30;;;;;;;;;;;16.90;99.90;;;;;;2080399;28;20021;-61
2021/07/14 03:29:33;;;;;;;20.92;6.30;;;16.90;99.90;;;;;;2080367;28;20369;-63
2021/07/14 03:30:35;;;;;;;24.17;6.93;;;16.90;99.90;;;;;;2079842;28;20061;-61
2021/07/14 03:31:36;;;;;;;26.20;7.38;;;16.90;99.90;;;;;;2079692;28;20044;-61
2021/07/14 03:32:39;;;;;;;23.30;7.25;;;16.90;99.90;;;;;;2079183;28;20571;-63
2021/07/14 03:33:40;;;;;;;29.88;7.10;;;16.90;99.90;;;;;;2079114;28;20194;-61
2021/07/14 03:34:41;;;;;;;30.08;7.28;;;16.90;99.90;;;;;;2080052;28;20017;-61
2021/07/14 03:35:43;;;;;;;27.85;7.40;;;16.90;99.90;;;;;;2079141;28;20488;-61
2021/07/14 03:36:45;;;;;;;30.98;7.43;;;16.90;99.90;;;;;;2079134;28;20017;-62
2021/07/14 03:37:49;;;;;;;23.10;6.72;;;16.90;99.90;;;;;;2077627;28;20444;-62
2021/07/14 03:38:52;;;;;;;25.95;6.97;;;16.90;99.90;;;;;;2079623;28;20457;-61
2021/07/14 03:39:53;;;;;;;22.33;6.38;;;16.80;99.90;;;;;;2079816;28;20311;-61
2021/07/14 03:40:55;;;;;;;28.67;6.55;;;16.90;99.90;;;;;;2080110;28;20052;-61
2021/07/14 03:41:57;;;;;;;20.17;6.70;;;16.80;99.90;;;;;;2079909;28;20034;-61
2021/07/14 03:42:58;;;;;;;23.15;6.60;;;16.90;99.90;;;;;;2084276;28;20009;-61
2021/07/14 03:44:00;;;;;;;28.10;6.72;;;16.90;99.90;;;;;;2087753;28;20136;-61
2021/07/14 03:45:02;;;;;;;18.50;7.10;;;16.80;99.90;;;;;;2087830;28;20115;-61
2021/07/14 03:46:04;;;;;;;22.35;6.65;;;16.80;99.90;;;;;;2087300;28;20491;-61
2021/07/14 03:47:06;;;;;;;23.23;6.57;;;16.90;99.90;;;;;;2083087;28;20621;-63
2021/07/14 03:48:10;;;;;;;28.85;7.40;;;16.80;99.90;;;;;;2086921;28;20101;-62
2021/07/14 03:49:14;;;;;;;26.10;7.40;;;16.80;99.90;;;;;;2088742;28;20049;-61
2021/07/14 03:50:15;;;;;;;25.70;6.65;;;16.80;99.90;;;;;;2089254;28;20017;-61
2021/07/14 03:51:17;;;;;;;26.95;7.43;;;16.80;99.90;;;;;;2087155;28;20071;-61
2021/07/14 03:52:20;;;;;;;20.38;7.03;;;16.80;99.90;;;;;;2080665;28;20071;-62
2021/07/14 03:53:21;;;;;;;21.98;7.47;;;16.80;99.90;;;;;;2081284;28;20049;-61
2021/07/14 03:54:23;;;;;;;23.40;7.80;;;16.80;99.90;;;;;;2081793;28;20018;-61
2021/07/14 03:55:23;;;;;;;30.05;6.60;;;16.80;99.90;;;;;;2081552;28;20025;-62
2021/07/14 03:56:25;;;;;;;26.73;7.47;;;16.80;99.90;;;;;;2081255;28;20489;-61
2021/07/14 03:57:29;;;;;;;22.27;7.88;;;16.80;99.90;;;;;;2081579;28;20485;-62
2021/07/14 03:58:30;;;;;;;27.00;6.90;;;16.80;99.90;;;;;;2082529;28;20037;-61
2021/07/14 03:59:31;;;;;;;29.65;7.45;;;16.80;99.90;;;;;;2079482;28;20021;-62
2021/07/14 04:00:32;;;;;;;28.20;7.80;;;16.80;99.90;;;;;;2081240;28;20512;-62
2021/07/14 04:01:33;;;;;;;25.90;7.38;;;16.80;99.90;;;;;;2081137;28;20291;-63
2021/07/14 04:02:37;;;;;;;23.58;7.32;;;16.80;99.90;;;;;;2081283;28;20057;-62
2021/07/14 04:03:39;;;;;;;24.13;7.38;;;16.80;99.90;;;;;;2081391;28;20488;-62
2021/07/14 04:04:40;;;;;;;;;;;16.80;99.90;;;;;;2082004;28;20014;-62
2021/07/14 04:05:44;;;;;;;25.50;7.72;;;16.80;99.90;;;;;;2081510;28;19955;-62
2021/07/14 04:06:49;;;;;;;32.35;8.50;;;16.80;99.90;;;;;;2081543;28;20026;-62
2021/07/14 04:07:52;;;;;;;31.33;8.02;;;16.80;99.90;;;;;;2080707;28;20070;-62
2021/07/14 04:09:17;;;;;;;28.02;7.13;;;16.80;99.90;;;;;;2085971;28;20025;-62
2021/07/14 04:10:17;;;;;;;27.55;7.63;;;16.80;99.90;;;;;;2086632;28;20067;-61
2021/07/14 04:11:18;;;;;;;23.10;6.68;;;16.80;99.90;;;;;;2089013;28;20074;-61
2021/07/14 04:12:19;;;;;;;26.13;8.00;;;16.80;99.90;;;;;;2086003;28;20048;-61
2021/07/14 04:13:20;;;;;;;26.13;6.97;;;16.70;99.90;;;;;;2080271;28;20025;-62
2021/07/14 04:14:21;;;;;;;30.42;8.30;;;16.70;99.90;;;;;;2082388;28;20045;-61
2021/07/14 04:15:22;;;;;;;22.65;6.93;;;16.70;99.90;;;;;;2081444;28;20025;-61
2021/07/14 04:16:22;;;;;;;31.20;8.30;;;16.70;99.90;;;;;;2083547;28;20037;-62
2021/07/14 04:17:23;;;;;;;28.55;8.38;;;16.70;99.90;;;;;;2088990;28;20114;-62
2021/07/14 04:18:24;;;;;;;28.05;8.63;;;16.70;99.90;;;;;;2089222;28;20017;-61
2021/07/14 04:19:26;;;;;;;34.05;8.02;;;16.70;99.90;;;;;;2089567;28;20043;-61
2021/07/14 04:20:26;;;;;;;23.58;7.20;;;16.70;99.90;;;;;;2089870;28;20024;-61
2021/07/14 04:21:27;;;;;;;22.40;7.68;;;16.70;99.90;;;;;;2090583;28;20124;-61
2021/07/14 04:22:28;;;;;;;25.65;7.68;;;16.70;99.90;;;;;;2090646;28;20056;-62
2021/07/14 04:23:28;;;;;;;27.90;7.57;;;16.70;99.90;;;;;;2091400;28;20045;-61
2021/07/14 04:24:29;;;;;;;27.42;7.50;;;16.60;99.90;;;;;;2091169;28;20032;-60
2021/07/14 04:25:30;;;;;;;28.52;6.72;;;16.60;99.90;;;;;;2080861;28;20021;-62
2021/07/14 04:26:32;;;;;;;21.60;7.10;;;16.60;99.90;;;;;;2096533;28;20020;-61
2021/07/14 04:27:32;;;;;;;24.65;8.15;;;16.60;99.90;;;;;;2090206;28;20029;-62
2021/07/14 04:28:33;;;;;;;24.42;7.63;;;16.60;99.90;;;;;;2089783;28;20029;-61
2021/07/14 04:29:34;;;;;;;24.35;7.40;;;16.60;99.90;;;;;;2089849;28;20256;-60
2021/07/14 04:30:35;;;;;;;21.58;7.38;;;16.60;99.90;;;;;;2089814;28;20071;-61
2021/07/14 04:31:36;;;;;;;28.77;8.30;;;16.60;99.90;;;;;;2086589;28;20013;-62
2021/07/14 04:32:37;;;;;;;28.27;7.82;;;16.60;99.90;;;;;;2082977;28;20135;-61
2021/07/14 04:33:38;;;;;;;22.75;6.95;;;16.60;99.90;;;;;;2081731;28;20030;-62
2021/07/14 04:34:39;;;;;;;22.92;7.20;;;16.60;99.90;;;;;;2088739;28;20408;-61
2021/07/14 04:35:40;;;;;;;23.42;6.85;;;16.70;99.90;;;;;;2089546;28;20021;-61
2021/07/14 04:36:43;;;;;;;16.95;6.88;;;16.60;99.90;;;;;;2089482;28;20025;-61
2021/07/14 04:37:47;;;;;;;32.20;7.40;;;16.60;99.90;;;;;;2089233;28;20021;-61
2021/07/14 04:38:47;;;;;;;22.83;7.22;;;16.60;99.90;;;;;;2090074;28;20017;-62
2021/07/14 04:39:48;;;;;;;27.23;7.68;;;16.60;99.90;;;;;;2089920;28;20396;-62
2021/07/14 04:40:49;;;;;;;28.63;8.50;;;16.70;99.90;;;;;;2083986;28;20036;-61
2021/07/14 04:41:49;;;;;;;21.83;6.45;;;16.70;99.90;;;;;;2081641;28;20017;-61
2021/07/14 04:42:51;;;;;;;26.77;7.40;;;16.70;99.90;;;;;;2080878;28;20025;-61
2021/07/14 04:43:52;;;;;;;;;;;16.70;99.90;;;;;;2081775;28;20156;-61
2021/07/14 04:44:53;;;;;;;24.25;7.13;;;16.70;99.90;;;;;;2080405;28;19960;-62
2021/07/14 04:45:53;;;;;;;24.52;7.25;;;16.70;99.90;;;;;;2080362;28;20040;-61
2021/07/14 04:46:54;;;;;;;31.90;7.25;;;16.70;99.90;;;;;;2082331;28;20029;-62
2021/07/14 04:47:55;;;;;;;29.20;7.90;;;16.70;99.90;;;;;;2081692;28;20022;-62
2021/07/14 04:48:55;;;;;;;29.58;8.65;;;16.70;99.90;;;;;;2080207;28;20469;-61
2021/07/14 04:49:56;;;;;;;26.50;7.65;;;16.70;99.90;;;;;;2080590;28;20036;-62
2021/07/14 04:50:57;;;;;;;28.80;8.73;;;16.70;99.90;;;;;;2078775;28;20033;-62
2021/07/14 04:51:58;;;;;;;28.92;7.50;;;16.70;99.90;;;;;;2080367;28;20041;-62
2021/07/14 04:52:58;;;;;;;28.83;7.45;;;16.70;99.90;;;;;;2080172;28;20029;-62
2021/07/14 04:53:59;;;;;;;23.73;7.13;;;16.70;99.90;;;;;;2081180;28;20076;-62
2021/07/14 04:55:00;;;;;;;26.98;7.60;;;16.70;99.90;;;;;;2081078;28;20052;-62
2021/07/14 04:56:01;;;;;;;26.17;7.10;;;16.70;99.90;;;;;;2081157;28;20029;-62
2021/07/14 04:57:01;;;;;;;38.08;8.55;;;16.70;99.90;;;;;;2081191;28;20653;-62
2021/07/14 04:58:02;;;;;;;28.08;7.55;;;16.70;99.90;;;;;;2081758;28;20083;-62
2021/07/14 04:59:03;;;;;;;24.00;7.40;;;16.70;99.90;;;;;;2083796;28;20024;-62
2021/07/14 05:00:06;;;;;;;31.13;7.43;;;16.70;99.90;;;;;;2085249;28;20025;-62
2021/07/14 05:01:07;;;;;;;32.55;7.68;;;16.70;99.90;;;;;;2088766;28;20024;-62
2021/07/14 05:02:07;;;;;;;30.50;8.38;;;16.70;99.90;;;;;;2089064;28;20049;-62
2021/07/14 05:03:08;;;;;;;24.25;7.75;;;16.70;99.90;;;;;;2089206;28;20203;-63
2021/07/14 05:04:09;;;;;;;29.00;8.10;;;16.70;99.90;;;;;;2089336;28;20032;-61
2021/07/14 05:05:11;;;;;;;26.38;7.93;;;16.70;99.90;;;;;;2089502;28;20096;-62
2021/07/14 05:06:16;;;;;;;24.75;6.90;;;16.70;99.90;;;;;;2088737;28;20120;-62
2021/07/14 05:07:17;;;;;;;32.92;7.72;;;16.70;99.90;;;;;;2087172;28;20022;-62
2021/07/14 05:08:18;;;;;;;31.67;7.82;;;16.70;99.90;;;;;;2087203;28;20051;-62
2021/07/14 05:09:18;;;;;;;30.13;7.88;;;16.70;99.90;;;;;;2088647;28;20024;-62
2021/07/14 05:10:24;;;;;;;32.78;8.27;;;16.70;99.90;;;;;;2080806;28;20025;-62
2021/07/14 05:11:25;;;;;;;29.90;8.45;;;16.70;99.90;;;;;;2080421;28;20049;-62
2021/07/14 05:12:26;;;;;;;29.58;8.15;;;16.70;99.90;;;;;;2072019;28;20033;-62
2021/07/14 05:13:26;;;;;;;29.80;7.63;;;16.70;99.90;;;;;;2080582;28;20197;-62
2021/07/14 05:14:27;;;;;;;34.72;7.63;;;16.70;99.90;;;;;;2078795;28;20080;-62
2021/07/14 05:15:28;;;;;;;27.25;7.30;;;16.70;99.90;;;;;;2086645;28;20482;-62
2021/07/14 05:16:29;;;;;;;27.88;8.48;;;16.70;99.90;;;;;;2088874;28;20047;-62
2021/07/14 05:17:29;;;;;;;27.30;8.48;;;16.70;99.90;;;;;;2089010;28;20028;-62
2021/07/14 05:18:33;;;;;;;23.42;7.65;;;16.70;99.90;;;;;;2089072;28;20096;-62
2021/07/14 05:19:33;;;;;;;31.98;8.35;;;16.70;99.90;;;;;;2088340;28;20408;-62
2021/07/14 05:20:34;;;;;;;42.50;8.68;;;16.70;99.90;;;;;;2088256;28;20056;-62
2021/07/14 05:21:35;;;;;;;35.15;8.27;;;16.70;99.90;;;;;;2086921;28;20533;-62
2021/07/14 05:22:37;;;;;;;36.17;8.90;;;16.70;99.90;;;;;;2080370;28;20025;-62
2021/07/14 05:23:37;;;;;;;29.58;8.68;;;16.70;99.90;;;;;;2088784;28;20060;-62
2021/07/14 05:24:38;;;;;;;36.92;9.40;;;16.70;99.90;;;;;;2080092;28;20505;-62
2021/07/14 05:25:39;;;;;;;27.02;8.50;;;16.70;99.90;;;;;;2080938;28;20028;-62
2021/07/14 05:26:39;;;;;;;34.47;8.77;;;16.70;99.90;;;;;;2097349;28;20097;-61
2021/07/14 05:27:40;;;;;;;27.13;9.13;;;16.60;99.90;;;;;;2097261;28;20025;-62
2021/07/14 05:28:41;;;;;;;27.48;7.60;;;16.70;99.90;;;;;;2097379;28;20079;-62
2021/07/14 05:29:41;;;;;;;27.17;7.72;;;16.70;99.90;;;;;;2097317;28;20150;-61
2021/07/14 05:30:42;;;;;;;25.92;8.85;;;16.70;99.90;;;;;;2088671;28;20278;-62
2021/07/14 05:31:43;;;;;;;27.33;8.10;;;16.70;99.90;;;;;;2080314;28;20114;-62
2021/07/14 05:32:44;;;;;;;23.48;7.53;;;16.70;99.90;;;;;;2080525;28;20412;-61
2021/07/14 05:33:44;;;;;;;30.15;7.95;;;16.70;99.90;;;;;;2078510;28;20049;-62